Map

Track Data

SID SEASON NUMBER BASIN SUBBASIN NAME ISO_TIME NATURE LAT LON WMO_WIND WMO_PRES WMO_AGENCY TRACK_TYPE DIST2LAND LANDFALL IFLAG USA_AGENCY USA_ATCF_ID USA_LAT USA_LON USA_RECORD USA_STATUS USA_WIND USA_PRES USA_SSHS USA_R34_NE USA_R34_SE USA_R34_SW USA_R34_NW USA_R50_NE USA_R50_SE USA_R50_SW USA_R50_NW USA_R64_NE USA_R64_SE USA_R64_SW USA_R64_NW USA_POCI USA_ROCI USA_RMW USA_EYE TOKYO_LAT TOKYO_LON TOKYO_GRADE TOKYO_WIND TOKYO_PRES TOKYO_R50_DIR TOKYO_R50_LONG TOKYO_R50_SHORT TOKYO_R30_DIR TOKYO_R30_LONG TOKYO_R30_SHORT TOKYO_LAND CMA_LAT CMA_LON CMA_CAT CMA_WIND CMA_PRES HKO_LAT HKO_LON HKO_CAT HKO_WIND HKO_PRES NEWDELHI_LAT NEWDELHI_LON NEWDELHI_GRADE NEWDELHI_WIND NEWDELHI_PRES NEWDELHI_CI NEWDELHI_DP NEWDELHI_POCI REUNION_LAT REUNION_LON REUNION_TYPE REUNION_WIND REUNION_PRES REUNION_TNUM REUNION_CI REUNION_RMW REUNION_R34_NE REUNION_R34_SE REUNION_R34_SW REUNION_R34_NW REUNION_R50_NE REUNION_R50_SE REUNION_R50_SW REUNION_R50_NW REUNION_R64_NE REUNION_R64_SE REUNION_R64_SW REUNION_R64_NW BOM_LAT BOM_LON BOM_TYPE BOM_WIND BOM_PRES BOM_TNUM BOM_CI BOM_RMW BOM_R34_NE BOM_R34_SE BOM_R34_SW BOM_R34_NW BOM_R50_NE BOM_R50_SE BOM_R50_SW BOM_R50_NW BOM_R64_NE BOM_R64_SE BOM_R64_SW BOM_R64_NW BOM_ROCI BOM_POCI BOM_EYE BOM_POS_METHOD BOM_PRES_METHOD NADI_LAT NADI_LON NADI_CAT NADI_WIND NADI_PRES WELLINGTON_LAT WELLINGTON_LON WELLINGTON_WIND WELLINGTON_PRES DS824_LAT DS824_LON DS824_STAGE DS824_WIND DS824_PRES TD9636_LAT TD9636_LON TD9636_STAGE TD9636_WIND TD9636_PRES TD9635_LAT TD9635_LON TD9635_WIND TD9635_PRES TD9635_ROCI NEUMANN_LAT NEUMANN_LON NEUMANN_CLASS NEUMANN_WIND NEUMANN_PRES MLC_LAT MLC_LON MLC_CLASS MLC_WIND MLC_PRES USA_GUST BOM_GUST BOM_GUST_PER REUNION_GUST REUNION_GUST_PER USA_SEAHGT USA_SEARAD_NE USA_SEARAD_SE USA_SEARAD_SW USA_SEARAD_NW STORM_SPEED STORM_DIR
2014033S20151 2014 12 SP EA EDNA 2014-02-02 00:00:00 NR -19.5000 150.700 main 217 217 O_____________ jtwc_sh SH122014 -19.5000 150.700 DB 20 1007 -3 1003 150 45 9 357
2014033S20151 2014 12 SP EA EDNA 2014-02-02 03:00:00 NR -19.0600 150.680 main 239 239 P_____________ SH122014 -19.0600 150.680 DB 20 1007 -3 1003 150 45 9 0
2014033S20151 2014 12 SP EA EDNA 2014-02-02 06:00:00 NR -18.6000 150.700 main 275 275 O_____________ jtwc_sh SH122014 -18.6000 150.700 DB 20 1007 -3 1003 150 45 10 6
2014033S20151 2014 12 SP EA EDNA 2014-02-02 09:00:00 NR -18.0950 150.785 main 323 323 P_____________ SH122014 -18.0950 150.785 DB 22 1005 -3 1003 150 45 11 10
2014033S20151 2014 12 SP EA EDNA 2014-02-02 12:00:00 TS -17.5000 150.900 main 383 383 O_____________ jtwc_sh SH122014 -17.5000 150.900 TD 25 1004 -1 1003 150 45 13 5
2014033S20151 2014 12 SP EA EDNA 2014-02-02 15:00:00 TS -16.7869 150.894 main 449 449 P_____________ SH122014 -16.7869 150.894 TD 25 1004 -1 1003 150 45 15 7
2014033S20151 2014 12 SP EA EDNA 2014-02-02 18:00:00 TS -16.0000 151.100 main 536 523 O_____________ jtwc_sh SH122014 -16.0000 151.100 TD 25 1004 -1 1003 150 45 19 27
2014033S20151 2014 12 SP EA EDNA 2014-02-02 21:00:00 TS -15.1254 151.789 main 515 472 P_____________ SH122014 -15.1254 151.789 TD 25 1003 -1 1003 150 45 22 44
2014033S20151 2014 12 SP EA EDNA 2014-02-03 00:00:00 TS -14.4000 152.700 main 477 472 O_____________ jtwc_sh SH122014 -14.4000 152.700 TD 25 1002 -1 1003 150 45 20 58
2014033S20151 2014 12 SP EA EDNA 2014-02-03 03:00:00 TS -14.0598 153.541 main 496 494 P_____________ SH122014 -14.0598 153.541 TD 25 1003 -1 1002 150 45 17 73
2014033S20151 2014 12 SP EA EDNA 2014-02-03 06:00:00 TS -13.9000 154.400 main 546 546 O_____________ jtwc_sh SH122014 -13.9000 154.400 TD 25 1004 -1 1002 150 45 17 77
2014033S20151 2014 12 SP EA EDNA 2014-02-03 09:00:00 TS -13.6625 155.280 main 608 578 P_____________ SH122014 -13.6625 155.280 TD 27 1002 -1 1002 150 45 17 76
2014033S20151 2014 12 SP EA EDNA 2014-02-03 12:00:00 TS -13.5000 156.100 main 578 526 O_____________ jtwc_sh SH122014 -13.5000 156.100 TD 30 1000 -1 1002 150 45 15 80
2014033S20151 2014 12 SP EA EDNA 2014-02-03 15:00:00 TS -13.4020 156.773 main 519 489 P_____________ SH122014 -13.4020 156.773 TD 30 999 -1 1001 150 45 13 90
2014033S20151 2014 12 SP EA EDNA 2014-02-03 18:00:00 TS -13.5000 157.400 main 489 478 O_____________ jtwc_sh SH122014 -13.5000 157.400 TD 30 998 -1 1001 150 45 13 109
2014033S20151 2014 12 SP EA EDNA 2014-02-03 21:00:00 TS -13.8370 158.056 main 484 484 P_____________ SH122014 -13.8370 158.056 TD 30 998 -1 1001 150 45 16 128
2014033S20151 2014 12 SP EA EDNA 2014-02-04 00:00:00 TS -14.4600 158.680 main 532 526 O_____________ jtwc_sh SH122014 -14.4000 158.800 TD 30 998 -1 1001 150 45 -14.7000 158.200 -1 30 997 20 132
2014033S20151 2014 12 SP EA EDNA 2014-02-04 03:00:00 TS -15.1491 159.573 main 537 537 P______I______ SH122014 -15.1057 159.772 TD 30 999 -1 1001 155 45 -15.2359 159.177 -1 32 996 22 129
2014033S20151 2014 12 SP MM EDNA 2014-02-04 06:00:00 TS -15.8571 160.443 35 995 nadi main 590 521 O_____________ jtwc_sh SH122014 -15.9000 160.700 TD 30 1000 -1 1001 160 45 -15.8000 160.100 1 35 995 20 133
2014033S20151 2014 12 SP MM EDNA 2014-02-04 09:00:00 TS -16.5383 161.122 main 521 420 P______I______ SH122014 -16.6568 161.326 TD 35 996 0 10 12 12 10 1001 170 45 -16.4197 160.918 1 35 995 19 139
2014033S20151 2014 12 SP MM EDNA 2014-02-04 12:00:00 TS -17.2500 161.700 35 995 nadi main 420 325 O_____________ jtwc_sh SH122014 -17.4000 161.800 TS 40 993 0 20 25 25 20 1001 180 45 -17.1000 161.600 1 35 995 18 143
2014033S20151 2014 12 SP MM EDNA 2014-02-04 15:00:00 TS -17.9335 162.217 main 325 229 P______I______ SH122014 -18.0849 162.281 TS 45 989 0 35 37 37 35 1000 180 37 -17.7822 162.153 1 37 995 17 148
2014033S20151 2014 12 SP MM EDNA 2014-02-04 18:00:00 TS -18.7000 162.650 40 995 nadi main 222 130 O_____________ jtwc_sh SH122014 -18.8000 162.700 TS 50 985 0 50 50 50 50 999 180 30 -18.6000 162.600 1 40 995 19 156
2014033S20151 2014 12 SP MM EDNA 2014-02-04 21:00:00 TS -19.6822 163.022 main 124 70 P______I______ SH122014 -19.6347 163.043 TS 50 985 0 50 55 55 50 1001 180 30 -19.7297 163.000 1 45 990 21 160
2014033S20151 2014 12 SP MM EDNA 2014-02-05 00:00:00 TS -20.6500 163.400 50 985 nadi main 70 70 O_____________ jtwc_sh SH122014 -20.5000 163.400 TS 50 985 0 50 60 60 50 20 20 20 20 1003 180 30 -20.8000 163.400 2 50 985 18 154
2014033S20151 2014 12 SP MM EDNA 2014-02-05 03:00:00 TS -21.3325 163.882 main 76 76 P______I______ SH122014 -21.3076 163.885 TS 52 983 0 47 57 57 47 1003 180 30 -21.3574 163.879 2 50 985 16 145
2014033S20151 2014 12 SP MM EDNA 2014-02-05 06:00:00 TS -22.0000 164.400 50 985 nadi main 84 84 O_____________ jtwc_sh SH122014 -22.1000 164.400 TS 55 982 0 45 55 55 45 1003 180 30 -21.9000 164.400 2 50 985 19 148
2014033S20151 2014 12 SP MM EDNA 2014-02-05 09:00:00 TS -22.9477 164.951 main 138 138 P______I______ SH122014 -22.9375 164.887 TS 50 985 0 37 42 42 37 1003 180 30 -22.9579 165.015 2 47 986 21 154
2014033S20151 2014 12 SP MM EDNA 2014-02-05 12:00:00 TS -23.8286 165.386 45 987 nadi main 196 196 O_____________ jtwc_sh SH122014 -23.7000 165.300 TS 45 989 0 30 30 30 30 1003 180 30 -24.0000 165.500 1 45 987 16 158
2014033S20151 2014 12 SP MM EDNA 2014-02-05 15:00:00 TS -24.4130 165.600 main 248 248 P______I______ SH122014 -24.3022 165.573 TS 42 991 0 30 30 30 30 1004 180 35 -24.6346 165.654 1 45 987 11 161
2014033S20151 2014 12 SP MM EDNA 2014-02-05 18:00:00 ET -24.8800 165.780 45 987 nadi main 294 294 O_______O_____ jtwc_sh SH122014 -24.8000 165.800 EX 40 993 -4 30 30 30 30 1005 180 40 -25.0000 165.600 1 45 987 -25.0000 165.900 35 998 9 153
2014033S20151 2014 12 SP MM EDNA 2014-02-05 21:00:00 ET -25.2477 166.068 main 318 318 P_______P_____ SH122014 -25.2578 166.079 EX 32 997 -4 1005 180 40 1 -25.2376 166.057 35 999 8 144
2014033S20151 2014 12 SP MM EDNA 2014-02-06 00:00:00 ET -25.5500 166.325 35 1001 wellington main 348 348 O_______O_____ jtwc_sh SH122014 -25.7000 166.400 EX 25 1001 -4 1005 180 40 -25.5000 166.300 35 1001 8 136
2014033S20151 2014 12 SP MM EDNA 2014-02-06 03:00:00 NR -25.8371 166.705 main 379 379 ________P_____ SH122014 EX -4 -25.8371 166.705 32 1001 12 134
2014033S20151 2014 12 SP MM EDNA 2014-02-06 06:00:00 NR -26.4000 167.300 30 1002 wellington main 448 448 ________O_____ -5 -26.4000 167.300 30 1002 20 140
2014033S20151 2014 12 SP MM EDNA 2014-02-06 09:00:00 NR -27.3789 168.161 main 573 573 ________P_____ -5 -27.3789 168.161 30 1004 25 143
2014033S20151 2014 12 SP MM EDNA 2014-02-06 12:00:00 NR -28.4000 169.000 30 1007 wellington main 702 683 ________O_____ -5 -28.4000 169.000 30 1007 20 146
2014033S20151 2014 12 SP MM EDNA 2014-02-06 15:00:00 NR -29.0284 169.419 main 683 606 ________P_____ -5 -29.0284 169.419 27 1008 14 150
2014033S20151 2014 12 SP MM EDNA 2014-02-06 18:00:00 NR -29.6000 169.800 25 1009 wellington main 606 511 ________O_____ -5 -29.6000 169.800 25 1009 16 145
2014033S20151 2014 12 SP MM EDNA 2014-02-06 21:00:00 NR -30.3478 170.490 main 508 398 ________P_____ -5 -30.3478 170.490 25 1009 21 141
2014033S20151 2014 12 SP MM EDNA 2014-02-07 00:00:00 NR -31.2000 171.300 25 1010 wellington main 387 271 ________O_____ -5 -31.2000 171.300 25 1010 23 142
2014033S20151 2014 12 SP MM EDNA 2014-02-07 03:00:00 NR -32.1306 172.104 main 271 167 ________P_____ -5 -32.1306 172.104 25 1010 23 145
2014033S20151 2014 12 SP MM EDNA 2014-02-07 06:00:00 NR -33.1000 172.900 25 1010 wellington main 156 ________O_____ -5 -33.1000 172.900 25 1010 24 145

Digital Typhoon Data and Search

About IBTrACS Database

This database is a web-friendly format of International Best Track Archive for Climate Stewardship (IBTrACS), a global best track data archive curated by NOAA dating back to 1842.

Updated: 2022-08-12